Time;durP1;ratioP1;P1;durP2;ratioP2;P2;SDS_P1;SDS_P2;PMS_P1;PMS_P2;Temp;Humidity;BMP_temperature;BMP_pressure;BME280_temperature;BME280_humidity;BME280_pressure;Samples;Min_cycle;Max_cycle;Signal;HPM_P1;HPM_P2
2023/04/02 00:01:45;;;;;;;;;;;;;;;12.80;41.09;94224.09;5049532;28;20008;-64
2023/04/02 00:04:14;;;;;;;;;;;;;;;13.04;41.19;94214.31;5067817;28;19943;-65
2023/04/02 00:06:45;;;;;;;;;;;;;;;13.13;40.42;94206.53;5067654;28;20573;-62
2023/04/02 00:09:20;;;;;;;;;;;;;;;12.89;40.66;94216.34;5067623;28;20282;-65
2023/04/02 00:11:48;;;;;;;;;;;;;;;13.19;39.93;94210.66;5067597;28;19947;-67
2023/04/02 00:14:18;;;;;;;;;;;;;;;13.45;39.80;94216.28;5068051;28;19951;-66
2023/04/02 00:16:44;;;;;;;;;;;;;;;13.40;39.56;94221.63;5067291;28;20055;-66
2023/04/02 00:19:18;;;;;;;;;;;;;;;13.18;40.01;94215.13;5067782;28;19944;-66
2023/04/02 00:21:45;;;;;;;;;;;;;;;13.48;38.98;94226.22;5067493;28;20077;-67
2023/04/02 00:24:18;;;;;;;;;;;;;;;13.73;38.85;94221.31;5067760;28;19944;-63
2023/04/02 00:26:54;;;;;;;;;;;;;;;13.15;39.32;94225.47;5067050;28;20312;-66
2023/04/02 00:29:21;;;;;;;;;;;;;;;13.45;38.85;94218.94;5067946;28;19945;-67
2023/04/02 00:31:51;;;;;;;;;;;;;;;13.79;38.53;94200.94;5067088;28;20527;-64
2023/04/02 00:34:20;;;;;;;;;;;;;;;13.60;39.11;94210.75;5067610;28;19977;-64
2023/04/02 00:36:47;;;;;;;;;;;;;;;13.69;38.82;94209.00;5048794;28;19950;-67
2023/04/02 00:39:17;;;;;;;;;;;;;;;13.85;39.73;94213.72;5067504;28;19994;-64
2023/04/02 00:41:45;;;;;;;;;;;;;;;13.29;42.03;94225.47;5067007;28;19954;-65
2023/04/02 00:44:13;;;;;;;;;;;;;;;13.29;41.70;94214.97;5029559;28;19945;-66
2023/04/02 00:46:48;;;;;;;;;;;;;;;12.79;43.39;94217.28;5066981;28;20051;-68
2023/04/02 00:49:15;;;;;;;;;;;;;;;12.53;44.10;94223.97;5067468;28;20350;-65
2023/04/02 00:51:48;;;;;;;;;;;;;;;12.44;43.85;94215.16;5049587;28;19944;-64
2023/04/02 00:54:17;;;;;;;;;;;;;;;12.67;44.00;94214.28;5049161;28;19949;-66
2023/04/02 00:56:45;;;;;;;;;;;;;;;12.80;43.55;94212.81;5070149;28;19948;-66
2023/04/02 00:59:25;;;;;;;;;;;;;;;12.31;44.85;94210.59;5073299;28;20268;-64
2023/04/02 01:02:03;;;;;;;;;;;;;;;12.43;44.39;94218.81;5072913;28;19948;-65
2023/04/02 01:04:33;;;;;;;;;;;;;;;12.32;44.84;94222.63;5071544;28;20047;-66
2023/04/02 01:07:05;;;;;;;;;;;;;;;12.20;44.75;94217.03;5071253;28;19959;-65
2023/04/02 01:09:42;;;;;;;;;;;;;;;11.95;45.89;94225.19;5071864;28;20351;-68
2023/04/02 01:12:27;;;;;;;;;;;;;;;12.18;45.35;94221.78;5071176;28;19948;-66
2023/04/02 01:15:12;;;;;;;;;;;;;;;12.29;45.24;94227.69;5053217;28;19980;-65
2023/04/02 01:17:49;;;;;;;;;;;;;;;11.97;45.42;94225.72;5071138;28;19982;-69
2023/04/02 01:20:34;;;;;;;;;;;;;;;11.87;46.13;94225.81;5071116;28;19960;-63
2023/04/02 01:23:27;;;;;;;;;;;;;;;11.79;46.12;94234.28;5070932;28;19973;-64
2023/04/02 01:26:03;;;;;;;;;;;;;;;11.82;46.07;94236.38;5041932;28;19959;-67
2023/04/02 01:28:45;;;;;;;;;;;;;;;11.75;46.08;94236.66;5049908;28;19986;-64
2023/04/02 01:31:14;;;;;;;;;;;;;;;12.08;45.43;94235.00;5070840;28;19948;-64
2023/04/02 01:33:40;;;;;;;;;;;;;;;11.97;45.30;94239.59;5052661;28;20049;-69
2023/04/02 01:36:07;;;;;;;;;;;;;;;11.80;45.94;94246.34;5051909;28;20007;-66
2023/04/02 01:38:42;;;;;;;;;;;;;;;12.00;45.75;94235.63;5053215;28;19958;-68
2023/04/02 01:41:16;;;;;;;;;;;;;;;12.00;44.97;94235.63;5069866;28;19948;-63
2023/04/02 01:43:52;;;;;;;;;;;;;;;11.99;44.88;94232.22;5053305;28;19954;-64
2023/04/02 01:46:28;;;;;;;;;;;;;;;11.98;44.85;94225.41;5052586;28;20372;-67
2023/04/02 01:48:55;;;;;;;;;;;;;;;12.17;44.41;94235.97;5070813;28;19949;-64
2023/04/02 01:51:32;;;;;;;;;;;;;;;11.86;45.28;94234.75;5052200;28;19953;-64
2023/04/02 01:54:03;;;;;;;;;;;;;;;11.94;45.05;94226.25;5051984;28;19952;-64
2023/04/02 01:56:29;;;;;;;;;;;;;;;12.14;44.73;94231.25;5048562;28;19981;-66
2023/04/02 01:58:57;;;;;;;;;;;;;;;12.17;44.80;94220.22;5050152;28;20048;-65
2023/04/02 02:01:30;;;;;;;;;;;;;;;12.25;44.78;94224.84;5048507;28;19950;-66
2023/04/02 02:03:56;;;;;;;;;;;;;;;12.14;44.43;94221.56;5049047;28;20004;-65
2023/04/02 02:06:23;;;;;;;;;;;;;;;12.25;44.58;94216.94;5048534;28;19951;-67
2023/04/02 02:08:56;;;;;;;;;;;;;;;12.23;44.40;94219.06;5049185;28;20335;-65
2023/04/02 02:11:25;;;;;;;;;;;;;;;12.29;44.38;94211.91;5048646;28;19982;-63
2023/04/02 02:13:54;;;;;;;;;;;;;;;11.97;44.94;94225.72;5048742;28;19983;-65
2023/04/02 02:16:21;;;;;;;;;;;;;;;11.94;45.31;94227.03;5048310;28;19943;-66
2023/04/02 02:18:49;;;;;;;;;;;;;;;12.12;44.63;94222.88;5049258;28;19992;-66
2023/04/02 02:21:22;;;;;;;;;;;;;;;12.01;44.98;94226.69;5049067;28;20013;-67
2023/04/02 02:23:49;;;;;;;;;;;;;;;12.22;44.47;94233.28;5049713;28;19967;-63
2023/04/02 02:26:16;;;;;;;;;;;;;;;12.31;45.00;94228.19;5049518;28;20051;-65
2023/04/02 02:28:45;;;;;;;;;;;;;;;11.93;45.34;94232.56;5048600;28;19948;-66
2023/04/02 02:31:18;;;;;;;;;;;;;;;11.69;46.28;94229.13;5050104;28;19951;-68
2023/04/02 02:33:49;;;;;;;;;;;;;;;11.78;46.50;94232.72;5039969;28;20017;-67
2023/04/02 02:36:28;;;;;;;;;;;;;;;11.88;45.81;94232.59;5047891;28;19957;-66
2023/04/02 02:39:05;;;;;;;;;;;;;;;11.95;45.72;94238.31;5048677;28;19964;-68
2023/04/02 02:42:13;;;;;;;;;;;;;;;11.97;45.68;94229.09;5047469;28;19956;-65
2023/04/02 02:44:43;;;;;;;;;;;;;;;12.00;45.71;94225.13;5025516;28;19952;-64
2023/04/02 02:47:18;;;;;;;;;;;;;;;12.02;45.82;94225.66;5047858;28;20471;-63
2023/04/02 02:50:24;;;;;;;;;;;;;;;12.12;45.54;94228.13;5036596;28;19988;-62
2023/04/02 02:52:53;;;;;;;;;;;;;;;10.87;48.49;94222.22;5047572;28;19948;-63
2023/04/02 02:55:23;;;;;;;;;;;;;;;11.34;47.61;94232.06;5048023;28;20011;-63
2023/04/02 02:58:10;;;;;;;;;;;;;;;11.66;46.96;94235.72;5038466;28;19943;-66
2023/04/02 03:00:49;;;;;;;;;;;;;;;11.81;46.57;94232.94;5050249;28;20032;-63
2023/04/02 03:03:20;;;;;;;;;;;;;;;11.71;46.96;94240.16;5051263;28;19959;-65
2023/04/02 03:05:55;;;;;;;;;;;;;;;11.85;46.26;94238.41;5050528;28;20078;-64
2023/04/02 03:08:30;;;;;;;;;;;;;;;11.95;45.46;94233.06;5050908;28;20316;-65
2023/04/02 03:11:01;;;;;;;;;;;;;;;11.80;46.44;94233.22;5039424;28;19949;-63
2023/04/02 03:13:31;;;;;;;;;;;;;;;11.84;46.17;94235.00;5064973;28;20290;-64
2023/04/02 03:16:07;;;;;;;;;;;;;;;11.76;46.75;94235.63;5050732;28;20001;-67
2023/04/02 03:18:39;;;;;;;;;;;;;;;11.89;46.46;94244.69;5050405;28;19945;-62
2023/04/02 03:21:25;;;;;;;;;;;;;;;11.86;45.92;94245.25;5050501;28;20581;-63
2023/04/02 03:23:56;;;;;;;;;;;;;;;11.85;46.49;94248.91;5050209;28;19953;-64
2023/04/02 03:26:26;;;;;;;;;;;;;;;11.77;46.77;94252.16;5050536;28;19945;-65
2023/04/02 03:29:00;;;;;;;;;;;;;;;11.85;46.51;94248.91;5050602;28;19950;-68
2023/04/02 03:31:36;;;;;;;;;;;;;;;11.82;46.37;94249.47;5050042;28;20435;-65
2023/04/02 03:34:08;;;;;;;;;;;;;;;11.72;46.46;94249.56;5050776;28;19943;-64
2023/04/02 03:36:56;;;;;;;;;;;;;;;11.65;47.07;94251.75;5050215;28;20297;-68
2023/04/02 03:39:53;;;;;;;;;;;;;;;11.35;47.36;94250.13;5041120;28;20031;-64
2023/04/02 03:42:29;;;;;;;;;;;;;;;11.34;47.33;94248.59;5020236;28;20524;-63
2023/04/02 03:45:04;;;;;;;;;;;;;;;11.05;48.25;94245.94;5036992;28;19960;-64
2023/04/02 03:47:35;;;;;;;;;;;;;;;10.32;50.30;94254.75;5051019;28;19982;-67
2023/04/02 03:50:10;;;;;;;;;;;;;;;10.15;50.33;94257.69;5068639;28;19959;-65
2023/04/02 03:52:38;;;;;;;;;;;;;;;10.56;49.71;94268.78;5049503;28;20283;-67
2023/04/02 03:55:22;;;;;;;;;;;;;;;10.80;49.20;94259.19;5050087;28;19955;-64
2023/04/02 03:57:52;;;;;;;;;;;;;;;10.52;50.10;94264.34;5049768;28;19948;-65
2023/04/02 04:00:23;;;;;;;;;;;;;;;10.54;49.90;94264.84;5033378;28;20428;-64
2023/04/02 04:02:57;;;;;;;;;;;;;;;10.55;49.89;94258.53;5049970;28;20431;-64
2023/04/02 04:05:37;;;;;;;;;;;;;;;10.82;49.28;94251.84;5048040;28;19965;-64
2023/04/02 04:08:14;;;;;;;;;;;;;;;11.01;48.63;94263.25;5046384;28;19942;-66
2023/04/02 04:10:42;;;;;;;;;;;;;;;11.06;48.35;94268.47;5049803;28;19949;-67
2023/04/02 04:13:14;;;;;;;;;;;;;;;11.22;48.00;94267.28;5050040;28;20647;-64
2023/04/02 04:15:46;;;;;;;;;;;;;;;11.10;48.07;94274.72;5050318;28;20432;-66
2023/04/02 04:18:36;;;;;;;;;;;;;;;11.21;47.85;94270.97;5049677;28;19951;-64
2023/04/02 04:21:28;;;;;;;;;;;;;;;11.32;47.66;94261.19;5049600;28;19945;-67
2023/04/02 04:24:02;;;;;;;;;;;;;;;11.24;48.20;94270.41;5049684;28;20412;-66
2023/04/02 04:26:41;;;;;;;;;;;;;;;11.16;48.13;94278.88;5049409;28;19968;-64
2023/04/02 04:29:27;;;;;;;;;;;;;;;11.23;48.02;94279.34;5049919;28;20008;-68
2023/04/02 04:31:55;;;;;;;;;;;;;;;11.22;47.84;94277.78;5048315;28;19950;-61
2023/04/02 04:34:45;;;;;;;;;;;;;;;11.22;48.00;94288.25;5049864;28;19949;-65
2023/04/02 04:37:24;;;;;;;;;;;;;;;11.20;47.92;94282.50;5063643;28;19956;-65
2023/04/02 04:39:56;;;;;;;;;;;;;;;11.06;48.24;94288.63;5049569;28;20020;-68
2023/04/02 04:42:25;;;;;;;;;;;;;;;10.95;48.75;94289.75;5037537;28;19950;-64
2023/04/02 04:44:57;;;;;;;;;;;;;;;10.83;49.59;94305.03;5066045;28;19953;-65
2023/04/02 04:47:29;;;;;;;;;;;;;;;11.04;48.72;94296.78;5049196;28;20058;-63
2023/04/02 04:50:10;;;;;;;;;;;;;;;11.21;48.29;94302.44;5037234;28;19947;-64
2023/04/02 04:52:39;;;;;;;;;;;;;;;11.10;48.25;94285.22;5063147;28;19991;-67
2023/04/02 04:55:19;;;;;;;;;;;;;;;11.24;48.06;94296.66;5049610;28;20188;-65
2023/04/02 04:57:47;;;;;;;;;;;;;;;11.27;48.09;94294.53;5049125;28;19953;-68
2023/04/02 05:00:21;;;;;;;;;;;;;;;10.96;49.03;94300.00;5049371;28;20639;-64
2023/04/02 05:03:03;;;;;;;;;;;;;;;10.83;49.20;94305.84;5048764;28;20423;-65
2023/04/02 05:05:30;;;;;;;;;;;;;;;11.26;48.13;94298.22;5045097;28;19957;-68
2023/04/02 05:08:15;;;;;;;;;;;;;;;11.47;47.97;94295.16;5045616;28;19953;-65
2023/04/02 05:10:49;;;;;;;;;;;;;;;11.56;48.02;94297.97;5048911;28;19950;-66
2023/04/02 05:13:20;;;;;;;;;;;;;;;11.64;47.61;94300.03;5049369;28;19949;-66
2023/04/02 05:16:22;;;;;;;;;;;;;;;11.75;47.52;94301.53;5067544;28;20032;-67
2023/04/02 05:18:52;;;;;;;;;;;;;;;11.81;47.59;94305.66;4965649;28;20084;-67
2023/04/02 05:21:32;;;;;;;;;;;;;;;11.87;47.29;94304.56;5042254;28;19978;-65
2023/04/02 05:24:19;;;;;;;;;;;;;;;11.91;47.41;94308.97;5049140;28;20001;-64
2023/04/02 05:26:49;;;;;;;;;;;;;;;12.06;47.17;94297.56;5042068;28;20044;-66
2023/04/02 05:29:16;;;;;;;;;;;;;;;12.13;47.12;94309.25;5049973;28;19951;-62
2023/04/02 05:31:47;;;;;;;;;;;;;;;12.10;46.96;94304.56;5046155;28;19964;-69
2023/04/02 05:34:22;;;;;;;;;;;;;;;12.09;47.16;94307.47;5048785;28;19956;-66
2023/04/02 05:36:50;;;;;;;;;;;;;;;12.17;45.57;94304.25;5047832;28;19954;-67
2023/04/02 05:39:20;;;;;;;;;;;;;;;12.25;45.31;94306.25;5049442;28;19996;-66
2023/04/02 05:42:00;;;;;;;;;;;;;;;12.30;45.61;94305.44;5049959;28;19961;-64
2023/04/02 05:44:40;;;;;;;;;;;;;;;12.54;45.36;94317.47;5052478;28;19968;-64
2023/04/02 05:47:12;;;;;;;;;;;;;;;12.67;44.98;94308.13;5052309;28;19949;-66
2023/04/02 05:49:57;;;;;;;;;;;;;;;12.65;46.52;94316.31;5070992;28;19953;-64
2023/04/02 05:52:26;;;;;;;;;;;;;;;12.85;45.29;94313.41;5047852;28;20520;-64
2023/04/02 05:55:11;;;;;;;;;;;;;;;12.86;45.67;94317.63;5052600;28;19992;-66
2023/04/02 05:57:50;;;;;;;;;;;;;;;12.88;45.26;94326.00;5051739;28;19973;-65
2023/04/02 06:00:38;;;;;;;;;;;;;;;13.08;44.99;94312.59;5051511;28;19952;-62
2023/04/02 06:03:16;;;;;;;;;;;;;;;12.92;44.77;94324.38;5052351;28;20699;-67
2023/04/02 06:05:44;;;;;;;;;;;;;;;12.94;44.32;94324.06;5063625;28;19972;-67
2023/04/02 06:08:22;;;;;;;;;;;;;;;12.93;44.02;94323.31;5047047;28;20042;-65
2023/04/02 06:11:15;;;;;;;;;;;;;;;13.04;42.93;94321.34;5063548;28;20012;-65
2023/04/02 06:13:42;;;;;;;;;;;;;;;13.24;42.93;94323.72;5057830;28;19948;-65
2023/04/02 06:16:13;;;;;;;;;;;;;;;13.46;44.34;94326.53;5069316;28;19953;-63
2023/04/02 06:18:41;;;;;;;;;;;;;;;13.71;45.41;94327.97;5052323;28;20045;-71
2023/04/02 06:21:11;;;;;;;;;;;;;;;13.73;44.31;94331.09;5050903;28;19974;-68
2023/04/02 06:23:42;;;;;;;;;;;;;;;13.94;43.77;94327.09;5051534;28;20502;-69
2023/04/02 06:26:30;;;;;;;;;;;;;;;14.12;43.81;94334.91;5064588;28;19952;-70
2023/04/02 06:29:12;;;;;;;;;;;;;;;13.93;42.36;94333.41;5048491;28;20358;-68
2023/04/02 06:31:56;;;;;;;;;;;;;;;13.91;43.37;94327.66;5057989;28;20412;-73
2023/04/02 06:34:25;;;;;;;;;;;;;;;13.91;43.28;94328.44;5046239;28;19985;-73
2023/04/02 06:36:59;;;;;;;;;;;;;;;13.95;43.48;94328.63;5052406;28;19943;-72
2023/04/02 06:39:28;;;;;;;;;;;;;;;14.05;43.46;94333.75;5053622;28;19947;-67
2023/04/02 06:41:59;;;;;;;;;;;;;;;14.09;43.96;94324.16;5051864;28;19956;-67
2023/04/02 06:44:47;;;;;;;;;;;;;;;14.08;43.21;94322.63;5009961;28;19969;-68
2023/04/02 06:47:42;;;;;;;;;;;;;;;13.91;43.24;94322.38;5050654;28;19954;-66
2023/04/02 06:50:18;;;;;;;;;;;;;;;14.26;43.16;94329.66;5052112;28;19945;-70
2023/04/02 06:52:47;;;;;;;;;;;;;;;14.59;42.27;94331.19;5076708;28;19937;-66
2023/04/02 06:55:20;;;;;;;;;;;;;;;14.50;42.20;94325.03;5055654;28;19951;-69
2023/04/02 06:57:47;;;;;;;;;;;;;;;14.59;41.73;94325.91;5068545;28;19998;-75
2023/04/02 07:00:23;;;;;;;;;;;;;;;14.70;44.08;94331.75;5051665;28;20013;-67
2023/04/02 07:02:52;;;;;;;;;;;;;;;14.88;43.38;94339.56;5069072;28;20492;-69
2023/04/02 07:05:19;;;;;;;;;;;;;;;14.93;41.88;94342.09;5051134;28;19973;-65
2023/04/02 07:07:46;;;;;;;;;;;;;;;15.00;41.79;94339.81;5050359;28;19941;-66
2023/04/02 07:10:15;;;;;;;;;;;;;;;14.40;41.01;94346.28;5051160;28;19997;-64
2023/04/02 07:12:42;;;;;;;;;;;;;;;14.59;41.49;94340.94;5064735;28;20464;-64
2023/04/02 07:15:13;;;;;;;;;;;;;;;14.94;41.08;94346.28;5050838;28;19942;-70
2023/04/02 07:17:41;;;;;;;;;;;;;;;14.99;40.72;94343.56;5043875;28;20004;-64
2023/04/02 07:20:28;;;;;;;;;;;;;;;15.25;40.60;94336.66;5051394;28;19947;-66
2023/04/02 07:22:58;;;;;;;;;;;;;;;15.45;40.55;94339.97;5050063;28;19951;-65
2023/04/02 07:25:25;;;;;;;;;;;;;;;15.46;41.19;94336.22;5066045;28;20322;-67
2023/04/02 07:27:52;;;;;;;;;;;;;;;15.53;40.36;94344.53;5067674;28;19959;-64
2023/04/02 07:30:19;;;;;;;;;;;;;;;15.64;40.46;94348.47;5068733;28;20357;-64
2023/04/02 07:32:46;;;;;;;;;;;;;;;15.77;40.83;94347.66;5068007;28;19972;-67
2023/04/02 07:35:13;;;;;;;;;;;;;;;15.70;40.10;94347.28;5068348;28;19951;-68
2023/04/02 07:37:40;;;;;;;;;;;;;;;15.97;40.28;94347.16;5067861;28;20004;-65
2023/04/02 07:40:14;;;;;;;;;;;;;;;16.16;40.16;94345.13;5068405;28;19953;-66
2023/04/02 07:42:41;;;;;;;;;;;;;;;16.40;40.77;94345.56;5068366;28;20407;-73
2023/04/02 07:45:08;;;;;;;;;;;;;;;16.47;40.62;94348.56;5068643;28;19967;-67
2023/04/02 07:47:34;;;;;;;;;;;;;;;16.57;39.58;94342.22;5069046;28;19951;-68
2023/04/02 07:50:02;;;;;;;;;;;;;;;16.64;38.96;94351.25;5069611;28;20601;-71
2023/04/02 07:52:30;;;;;;;;;;;;;;;16.52;38.67;94343.13;5067920;28;19954;-67
2023/04/02 07:54:56;;;;;;;;;;;;;;;16.36;37.73;94339.31;5067848;28;20759;-67
2023/04/02 07:57:23;;;;;;;;;;;;;;;16.63;36.05;94328.56;5061892;28;19969;-67
2023/04/02 07:59:50;;;;;;;;;;;;;;;16.63;35.32;94328.56;5067787;28;20413;-66
2023/04/02 08:02:18;;;;;;;;;;;;;;;16.78;36.21;94330.78;5066799;28;20021;-68
2023/04/02 08:04:45;;;;;;;;;;;;;;;17.09;36.62;94331.50;5050024;28;20017;-66
2023/04/02 08:07:12;;;;;;;;;;;;;;;16.64;35.28;94340.69;5067432;28;20316;-67
2023/04/02 08:09:39;;;;;;;;;;;;;;;16.48;34.88;94336.88;5054940;28;19971;-68
2023/04/02 08:12:06;;;;;;;;;;;;;;;17.04;34.89;94344.84;5066274;28;19998;-70
2023/04/02 08:14:32;;;;;;;;;;;;;;;17.13;34.47;94344.88;5067750;28;19961;-68
2023/04/02 08:16:59;;;;;;;;;;;;;;;17.26;33.52;94335.25;5067063;28;20384;-66
2023/04/02 08:19:27;;;;;;;;;;;;;;;17.21;33.65;94334.28;5050020;28;20369;-69
2023/04/02 08:21:54;;;;;;;;;;;;;;;17.63;34.67;94337.31;5066982;28;20411;-66
2023/04/02 08:24:21;;;;;;;;;;;;;;;17.53;33.81;94340.28;5067412;28;20055;-67
2023/04/02 08:26:48;;;;;;;;;;;;;;;18.05;33.88;94341.78;5065940;28;20431;-66
2023/04/02 08:29:14;;;;;;;;;;;;;;;17.68;32.45;94334.50;5068072;28;20532;-66
2023/04/02 08:31:41;;;;;;;;;;;;;;;17.53;33.67;94341.06;5068165;28;19986;-68
2023/04/02 08:34:08;;;;;;;;;;;;;;;17.51;32.42;94347.75;5063502;28;20040;-72
2023/04/02 08:36:36;;;;;;;;;;;;;;;17.39;32.82;94350.22;5056002;28;19962;-70
2023/04/02 08:39:04;;;;;;;;;;;;;;;17.47;32.38;94325.59;5065184;28;19946;-68
2023/04/02 08:41:36;;;;;;;;;;;;;;;17.42;32.59;94337.13;5053143;28;20007;-68
2023/04/02 08:44:09;;;;;;;;;;;;;;;18.06;32.45;94354.72;5057250;28;20049;-67
2023/04/02 08:46:47;;;;;;;;;;;;;;;18.23;32.62;94344.09;5062123;28;20300;-67
2023/04/02 08:49:15;;;;;;;;;;;;;;;18.20;33.58;94351.91;5066237;28;19942;-68
2023/04/02 08:51:43;;;;;;;;;;;;;;;18.24;32.73;94336.91;5065753;28;19946;-67
2023/04/02 08:54:27;;;;;;;;;;;;;;;18.33;32.95;94348.28;5067339;28;19952;-69
2023/04/02 08:56:55;;;;;;;;;;;;;;;18.60;33.09;94342.59;5066525;28;20001;-69
2023/04/02 08:59:29;;;;;;;;;;;;;;;18.36;31.46;94345.00;5067386;28;19980;-70
2023/04/02 09:01:56;;;;;;;;;;;;;;;18.04;31.35;94345.53;5066906;28;20043;-67
2023/04/02 09:04:24;;;;;;;;;;;;;;;18.67;31.94;94348.19;5067417;28;20044;-68
2023/04/02 09:06:53;;;;;;;;;;;;;;;19.34;33.01;94347.41;5067082;28;19959;-70
2023/04/02 09:09:21;;;;;;;;;;;;;;;18.99;30.41;94330.88;5067386;28;19956;-66
2023/04/02 09:11:57;;;;;;;;;;;;;;;18.97;32.64;94331.19;5067045;28;19980;-66
2023/04/02 09:14:39;;;;;;;;;;;;;;;19.03;33.43;94337.84;5067499;28;20111;-67
2023/04/02 09:17:15;;;;;;;;;;;;;;;19.05;30.26;94333.00;5068054;28;20442;-67
2023/04/02 09:19:43;;;;;;;;;;;;;;;19.09;30.75;94335.81;5054576;28;19960;-68
2023/04/02 09:22:24;;;;;;;;;;;;;;;19.25;30.32;94341.34;5070760;28;20042;-66
2023/04/02 09:24:51;;;;;;;;;;;;;;;19.29;31.33;94339.59;5066573;28;19971;-68
2023/04/02 09:27:22;;;;;;;;;;;;;;;19.19;30.14;94343.41;5069891;28;20044;-68
2023/04/02 09:29:52;;;;;;;;;;;;;;;18.84;30.58;94332.19;5070697;28;19948;-67
2023/04/02 09:32:22;;;;;;;;;;;;;;;18.70;30.05;94336.94;5070471;28;19988;-69
2023/04/02 09:34:49;;;;;;;;;;;;;;;19.41;32.45;94334.38;5071184;28;19952;-68
2023/04/02 09:37:21;;;;;;;;;;;;;;;19.44;30.18;94333.72;5070059;28;20329;-67
2023/04/02 09:39:48;;;;;;;;;;;;;;;18.82;29.61;94339.69;5068974;28;19944;-67
2023/04/02 09:42:27;;;;;;;;;;;;;;;19.23;30.21;94330.25;5067881;28;19959;-68
2023/04/02 09:45:30;;;;;;;;;;;;;;;18.59;29.83;94321.69;5068214;28;20400;-66
2023/04/02 09:47:57;;;;;;;;;;;;;;;19.36;31.10;94324.72;5000433;28;19950;-67
2023/04/02 09:50:26;;;;;;;;;;;;;;;19.02;31.16;94333.66;5051631;28;20001;-67
2023/04/02 09:52:52;;;;;;;;;;;;;;;19.71;30.75;94317.25;5051850;28;19949;-67
2023/04/02 09:55:25;;;;;;;;;;;;;;;19.52;29.99;94324.94;5070794;28;19944;-66
2023/04/02 09:58:06;;;;;;;;;;;;;;;19.68;29.89;94312.59;5070863;28;19974;-66
2023/04/02 10:00:33;;;;;;;;;;;;;;;19.13;29.66;94324.22;5071235;28;19952;-66
2023/04/02 10:03:17;;;;;;;;;;;;;;;19.01;30.03;94329.44;5070894;28;19961;-66
2023/04/02 10:05:45;;;;;;;;;;;;;;;19.06;29.92;94323.97;5065079;28;20418;-65
2023/04/02 10:08:16;;;;;;;;;;;;;;;19.29;30.31;94321.78;5052406;28;20429;-67
2023/04/02 10:10:45;;;;;;;;;;;;;;;19.45;30.11;94319.34;5070736;28;20438;-67
2023/04/02 10:13:32;;;;;;;;;;;;;;;19.71;29.86;94311.94;5071142;28;19944;-66
2023/04/02 10:16:02;;;;;;;;;;;;;;;19.74;28.93;94306.00;5070583;28;19944;-66
2023/04/02 10:18:36;;;;;;;;;;;;;;;19.85;29.02;94296.50;5070437;28;19952;-68
2023/04/02 10:21:04;;;;;;;;;;;;;;;20.16;28.52;94286.19;5064167;28;19995;-65
2023/04/02 10:23:31;;;;;;;;;;;;;;;20.39;29.21;94289.22;5067963;28;19983;-66
2023/04/02 10:26:13;;;;;;;;;;;;;;;20.10;30.11;94295.47;5065372;28;19953;-66
2023/04/02 10:29:06;;;;;;;;;;;;;;;20.47;30.36;94291.81;5067472;28;19949;-66
2023/04/02 10:31:40;;;;;;;;;;;;;;;20.46;29.30;94290.25;5066007;28;20001;-67
2023/04/02 10:34:11;;;;;;;;;;;;;;;20.38;31.42;94298.34;5070486;28;19955;-66
2023/04/02 10:36:47;;;;;;;;;;;;;;;20.44;27.89;94303.09;5052350;28;19956;-66
2023/04/02 10:39:22;;;;;;;;;;;;;;;19.84;28.56;94300.25;5069564;28;19940;-66
2023/04/02 10:41:56;;;;;;;;;;;;;;;19.97;28.83;94301.84;5070389;28;20011;-66
2023/04/02 10:44:43;;;;;;;;;;;;;;;19.19;29.11;94307.00;5069668;28;19951;-65
2023/04/02 10:47:16;;;;;;;;;;;;;;;19.22;29.93;94297.59;5044620;28;19947;-65
2023/04/02 10:49:59;;;;;;;;;;;;;;;19.74;29.66;94300.66;5057223;28;19949;-64
2023/04/02 10:52:29;;;;;;;;;;;;;;;19.34;29.25;94297.72;5069325;28;19949;-64
2023/04/02 10:54:59;;;;;;;;;;;;;;;20.04;30.04;94289.59;5069164;28;19943;-64
2023/04/02 10:57:42;;;;;;;;;;;;;;;20.23;29.35;94290.97;5069186;28;19953;-63
2023/04/02 11:00:15;;;;;;;;;;;;;;;19.95;29.18;94286.22;5069557;28;19978;-64
2023/04/02 11:02:48;;;;;;;;;;;;;;;19.76;28.41;94293.16;5059304;28;19958;-65
2023/04/02 11:05:42;;;;;;;;;;;;;;;19.46;28.34;94283.69;5066429;28;20397;-63
2023/04/02 11:08:11;;;;;;;;;;;;;;;20.32;30.01;94283.69;5052443;28;19981;-65
2023/04/02 11:10:43;;;;;;;;;;;;;;;20.34;28.05;94274.28;5069192;28;20042;-65
2023/04/02 11:13:20;;;;;;;;;;;;;;;20.09;28.27;94273.41;5068623;28;20386;-67
2023/04/02 11:15:48;;;;;;;;;;;;;;;20.96;28.07;94272.06;5051455;28;19948;-67
2023/04/02 11:18:22;;;;;;;;;;;;;;;21.36;27.97;94274.00;5068990;28;20464;-68
2023/04/02 11:20:49;;;;;;;;;;;;;;;20.61;27.11;94276.28;5069759;28;20376;-68
2023/04/02 11:23:19;;;;;;;;;;;;;;;20.19;27.21;94274.91;5069575;28;19999;-68
2023/04/02 11:25:46;;;;;;;;;;;;;;;21.10;26.90;94274.38;5065510;28;20002;-68
2023/04/02 11:28:25;;;;;;;;;;;;;;;20.50;26.85;94272.50;5068549;28;19955;-73
2023/04/02 11:30:52;;;;;;;;;;;;;;;21.05;27.16;94270.09;5068527;28;19981;-70
2023/04/02 11:33:32;;;;;;;;;;;;;;;20.95;27.43;94267.84;5069442;28;20362;-66
2023/04/02 11:36:25;;;;;;;;;;;;;;;20.52;26.79;94272.94;5069190;28;19952;-70
2023/04/02 11:38:52;;;;;;;;;;;;;;;20.90;26.21;94267.28;5068576;28;20017;-68
2023/04/02 11:41:40;;;;;;;;;;;;;;;21.61;27.23;94260.25;5068704;28;19963;-65
2023/04/02 11:44:20;;;;;;;;;;;;;;;21.31;25.89;94260.91;5050682;28;19946;-68
2023/04/02 11:46:47;;;;;;;;;;;;;;;21.02;26.24;94260.06;5068559;28;19950;-70
2023/04/02 11:49:46;;;;;;;;;;;;;;;20.90;26.10;94254.75;5068890;28;19946;-68
2023/04/02 11:52:24;;;;;;;;;;;;;;;21.77;26.49;94252.31;5029408;28;20042;-70
2023/04/02 11:54:55;;;;;;;;;;;;;;;22.07;25.72;94250.84;5063930;28;19957;-71
2023/04/02 11:57:26;;;;;;;;;;;;;;;22.19;25.98;94248.09;5065264;28;20044;-67
2023/04/02 11:59:53;;;;;;;;;;;;;;;21.40;25.90;94258.88;5061685;28;19973;-67
2023/04/02 12:02:26;;;;;;;;;;;;;;;21.17;25.67;94251.41;5066488;28;19946;-68
2023/04/02 12:05:03;;;;;;;;;;;;;;;21.14;25.49;94251.28;5068681;28;20347;-72
2023/04/02 12:07:35;;;;;;;;;;;;;;;21.10;27.10;94247.75;5072333;28;19979;-69
2023/04/02 12:10:04;;;;;;;;;;;;;;;20.64;27.25;94251.66;5069297;28;19956;-72
2023/04/02 12:12:34;;;;;;;;;;;;;;;21.10;26.92;94251.19;5069430;28;19946;-65
2023/04/02 12:15:07;;;;;;;;;;;;;;;20.93;26.33;94251.41;5069311;28;20364;-68
2023/04/02 12:17:35;;;;;;;;;;;;;;;21.40;26.82;94248.22;5068374;28;19948;-68
2023/04/02 12:20:19;;;;;;;;;;;;;;;21.71;25.68;94256.34;5068848;28;19987;-68
2023/04/02 12:22:53;;;;;;;;;;;;;;;21.19;25.79;94253.72;5068369;28;19947;-69
2023/04/02 12:25:25;;;;;;;;;;;;;;;20.70;25.91;94252.19;5067812;28;20017;-65
2023/04/02 12:28:06;;;;;;;;;;;;;;;20.70;26.74;94247.66;5062641;28;19925;-68
2023/04/02 12:30:33;;;;;;;;;;;;;;;20.91;26.28;94242.97;5065388;28;20373;-72
2023/04/02 12:33:18;;;;;;;;;;;;;;;20.98;26.11;94259.16;5066862;28;19949;-68
2023/04/02 12:35:46;;;;;;;;;;;;;;;20.70;25.70;94255.66;5057125;28;20042;-67
2023/04/02 12:38:20;;;;;;;;;;;;;;;21.29;26.01;94237.28;5054117;28;20372;-73
2023/04/02 12:40:54;;;;;;;;;;;;;;;21.27;28.74;94236.84;5069200;28;19991;-65
2023/04/02 12:43:22;;;;;;;;;;;;;;;21.27;26.02;94236.06;5067940;28;19941;-70
2023/04/02 12:45:53;;;;;;;;;;;;;;;20.82;25.69;94234.34;5061697;28;20352;-67
2023/04/02 12:48:20;;;;;;;;;;;;;;;20.78;26.12;94244.09;5060016;28;20000;-67
2023/04/02 12:50:47;;;;;;;;;;;;;;;21.11;25.83;94236.75;5063773;28;19941;-67
2023/04/02 12:53:20;;;;;;;;;;;;;;;20.58;25.64;94239.69;5066609;28;19946;-66
2023/04/02 12:55:47;;;;;;;;;;;;;;;19.91;26.21;94237.47;5066307;28;19951;-66
2023/04/02 12:58:23;;;;;;;;;;;;;;;20.57;26.23;94226.69;5066628;28;19967;-68
2023/04/02 13:00:50;;;;;;;;;;;;;;;20.59;25.30;94224.47;5066557;28;20061;-66
2023/04/02 13:03:19;;;;;;;;;;;;;;;20.87;24.98;94226.13;5068496;28;19982;-73
2023/04/02 13:05:51;;;;;;;;;;;;;;;20.78;25.47;94228.13;5069881;28;19934;-67
2023/04/02 13:08:21;;;;;;;;;;;;;;;20.96;26.53;94218.00;5058519;28;19924;-71
2023/04/02 13:10:58;;;;;;;;;;;;;;;20.88;25.93;94226.88;5068765;28;19928;-71
2023/04/02 13:13:27;;;;;;;;;;;;;;;21.15;24.80;94221.66;5054753;28;19933;-69
2023/04/02 13:16:03;;;;;;;;;;;;;;;21.02;24.83;94217.47;5070647;28;19928;-68
2023/04/02 13:18:31;;;;;;;;;;;;;;;21.26;25.70;94221.19;5072217;28;19978;-69
2023/04/02 13:20:58;;;;;;;;;;;;;;;21.25;24.85;94216.97;5065071;28;20384;-69